Latest Weather Observations for Carnarvon

IDW60801

Issued at 9:23 pm WST Sunday 24 October 2021 (issued every 10 minutes, with the page automatically refreshed every 10 minutes)

About weather observations | Map of weather stations | Latest weather observations for WA | Other Formats
Station Details ID: 006011 Name: CARNARVON AIRPORT Lat: -24.89 Lon: 113.67 Height: 4.0 m
Data from the previous 72 hours. | See also: Recent months at Carnarvon
Date/Time
WST
Temp
°C
App
Temp
°C
Dew
Point
°C
Rel
Hum
%
Delta-T
°C
Wind Press
QNH
hPa
Press
MSL
hPa
Rain since
9am
mm
Dir  Spd
km/h
Gust
km/h
Spd
kts
Gust
kts
24/09:00pm 21.2 19.0 16.8 76 2.7 SW 24 33 13 18 1013.3 1013.3 0.0
24/08:30pm 21.3 18.1 17.3 78 2.5 SSW 30 39 16 21 1013.1 1013.1 0.0
24/08:00pm 21.4 18.6 17.4 78 2.5 SW 28 35 15 19 1012.7 1012.7 0.0
24/07:44pm 21.4 18.3 17.6 79 2.3 SSW 30 37 16 20 1012.4 1012.4 0.0
24/07:30pm 21.6 18.8 18.2 81 2.1 SSW 30 39 16 21 1012.2 1012.2 0.0
24/07:00pm 21.5 18.7 18.1 81 2.1 SW 30 39 16 21 1011.8 1011.8 0.0
24/06:30pm 22.0 19.7 18.4 80 2.3 SSW 28 41 15 22 1011.5 1011.5 0.0
24/06:00pm 22.7 20.6 18.9 79 2.4 SW 28 35 15 19 1011.0 1011.0 0.0
24/05:30pm 23.6 22.0 19.3 77 2.7 SSW 26 35 14 19 1010.6 1010.6 0.0
24/05:00pm 24.2 22.4 19.5 75 3.0 SW 28 37 15 20 1010.3 1010.3 0.0
24/04:30pm 25.0 24.1 19.8 73 3.4 WSW 24 32 13 17 1010.2 1010.2 0.0
24/04:00pm 25.3 23.8 19.4 70 3.8 SW 26 32 14 17 1009.9 1009.9 0.0
24/03:30pm 25.3 23.8 19.4 70 3.8 SW 26 33 14 18 1010.0 1010.0 0.0
24/03:00pm 25.8 23.4 19.2 67 4.2 SW 30 39 16 21 1010.0 1010.0 0.0
24/02:30pm 26.1 24.1 19.2 65 4.4 SW 28 35 15 19 1010.1 1010.1 0.0
24/02:00pm 25.9 24.1 18.8 65 4.5 SW 26 35 14 19 1010.1 1010.1 0.0
24/01:30pm 26.1 24.1 18.2 61 5.0 SW 26 35 14 19 1010.3 1010.3 0.0
24/01:00pm 25.7 23.6 18.1 63 4.8 SSW 26 33 14 18 1010.7 1010.7 0.0
24/12:30pm 25.5 23.1 18.2 64 4.6 SW 28 37 15 20 1011.0 1011.0 0.0
24/12:00pm 24.5 22.5 18.2 68 4.0 WSW 26 35 14 19 1011.3 1011.3 0.0
24/11:30am 24.9 22.7 18.6 68 4.0 SSW 28 35 15 19 1011.2 1011.2 0.0
24/11:00am 25.4 22.9 17.1 60 5.2 SW 26 32 14 17 1011.7 1011.7 0.0
24/10:30am 24.3 22.0 17.5 66 4.2 SW 26 35 14 19 1012.1 1012.1 0.0
24/10:00am 24.4 22.7 18.1 68 4.0 SSW 24 30 13 16 1011.8 1011.8 0.0
24/09:30am 24.8 23.6 18.5 68 4.0 SSW 22 28 12 15 1011.8 1011.8 0.0
24/09:00am 24.0 23.1 18.2 70 3.6 SW 20 24 11 13 1012.1 1012.1 0.0
24/08:30am 24.6 24.8 18.5 69 3.9 SSW 15 19 8 10 1012.1 1012.1 0.0
24/08:00am 24.2 23.0 17.0 64 4.4 S 19 22 10 12 1012.0 1012.0 0.0
24/07:30am 22.9 22.0 16.9 69 3.7 SSE 17 20 9 11 1011.7 1011.7 0.0
24/07:00am 21.1 21.2 17.5 80 2.2 S 13 19 7 10 1011.8 1011.8 0.0
24/06:30am 19.3 19.3 17.1 87 1.3 S 13 17 7 9 1011.9 1011.9 0.0
24/06:00am 17.0 16.6 15.3 90 1.0 S 11 15 6 8 1011.9 1011.9 0.0
24/05:30am 16.7 15.7 14.7 88 1.1 SSE 13 13 7 7 1011.9 1011.9 0.0
24/05:00am 17.1 15.8 14.7 86 1.4 S 15 17 8 9 1011.8 1011.8 0.0
24/04:30am 17.6 16.3 14.9 84 1.6 SSE 15 15 8 8 1011.9 1011.9 0.0
24/04:00am 17.9 17.4 15.0 83 1.7 S 11 13 6 7 1011.9 1011.9 0.0
24/03:30am 18.7 17.6 15.2 80 2.0 SSE 15 17 8 9 1011.9 1011.9 0.0
24/03:00am 19.3 17.8 15.4 78 2.3 SSE 17 22 9 12 1011.9 1011.9 0.0
24/02:30am 19.7 17.9 15.4 76 2.5 SSE 19 24 10 13 1012.1 1012.1 0.0
24/02:00am 20.1 18.2 15.3 74 2.8 SSE 19 24 10 13 1012.5 1012.5 0.0
24/01:30am 20.4 18.5 15.8 75 2.7 SSE 20 28 11 15 1012.7 1012.7 0.0
24/01:00am 20.6 18.4 16.0 75 2.8 SSE 22 30 12 16 1012.9 1012.9 0.0
24/12:30am 20.8 17.8 15.8 73 3.0 SSE 26 35 14 19 1013.1 1013.1 0.0
24/12:00am 21.1 17.6 15.4 70 3.4 SSE 28 39 15 21 1013.3 1013.3 0.0
 
Date/Time
WST
Temp
°C
App
Temp
°C
Dew
Point
°C
Rel
Hum
%
Delta-T
°C
Wind Press
QNH
hPa
Press
MSL
hPa
Rain since
9am
mm
Dir  Spd
km/h
Gust
km/h
Spd
kts
Gust
kts
23/11:30pm 21.2 17.6 15.3 69 3.5 SSE 28 35 15 19 1013.7 1013.7 0.0
23/11:00pm 21.2 17.4 14.8 67 3.8 SSE 28 33 15 18 1013.9 1013.9 0.0
23/10:30pm 21.3 17.6 14.9 67 3.8 S 28 37 15 20 1014.0 1014.0 0.0
23/10:00pm 21.5 16.9 14.6 65 4.0 S 32 39 17 21 1014.3 1014.3 0.0
23/09:30pm 21.7 18.7 15.8 69 3.5 S 26 32 14 17 1014.7 1014.7 0.0
23/09:00pm 22.1 18.9 15.2 65 4.1 S 26 35 14 19 1014.9 1014.9 0.0
23/08:30pm 22.5 19.6 16.1 67 3.9 S 26 33 14 18 1014.9 1014.9 0.0
23/08:00pm 23.0 19.9 16.5 67 4.0 S 28 37 15 20 1014.7 1014.7 0.0
23/07:30pm 23.2 21.4 17.9 72 3.3 S 24 32 13 17 1014.4 1014.4 0.0
23/07:00pm 23.3 20.9 18.2 73 3.2 SSW 28 37 15 20 1014.2 1014.2 0.0
23/06:30pm 23.5 20.4 18.4 73 3.2 SSW 32 39 17 21 1014.0 1014.0 0.0
23/06:00pm 24.2 21.0 18.2 69 3.8 SSW 32 39 17 21 1013.8 1013.8 0.0
23/05:30pm 24.7 21.4 17.9 66 4.3 SSW 32 43 17 23 1013.8 1013.8 0.0
23/05:00pm 25.5 22.0 17.9 63 4.8 SSW 33 44 18 24 1013.8 1013.8 0.0
23/04:30pm 26.1 22.5 17.2 58 5.5 SSW 32 39 17 21 1013.8 1013.8 0.0
23/04:00pm 26.2 22.5 17.0 57 5.7 SSW 32 43 17 23 1013.9 1013.9 0.0
23/03:30pm 26.9 23.5 16.8 54 6.3 SSW 30 41 16 22 1014.2 1014.2 0.0
23/03:00pm 26.9 23.0 16.5 53 6.4 SSW 32 41 17 22 1014.3 1014.3 0.0
23/02:30pm 26.3 22.3 16.8 56 5.9 SSW 33 41 18 22 1014.6 1014.6 0.0
23/02:00pm 26.5 22.3 16.1 52 6.4 SSW 33 43 18 23 1014.9 1014.9 0.0
23/01:30pm 27.6 22.8 15.6 48 7.3 SSW 35 44 19 24 1015.2 1015.2 0.0
23/01:00pm 27.2 23.0 15.6 49 7.1 SSW 32 43 17 23 1015.3 1015.3 0.0
23/12:30pm 26.7 22.1 16.0 52 6.6 SSW 35 44 19 24 1015.8 1015.8 0.0
23/12:00pm 26.4 22.2 16.3 53 6.2 SSW 33 43 18 23 1016.4 1016.4 0.0
23/11:30am 25.5 20.9 16.1 56 5.7 SSW 35 44 19 24 1016.7 1016.7 0.0
23/11:00am 25.1 20.6 16.3 58 5.4 SSW 35 43 19 23 1017.3 1017.3 0.0
23/10:30am 26.4 23.5 16.1 53 6.3 SSW 26 39 14 21 1017.6 1017.6 0.0
23/10:00am 30.3 25.2 7.5 24 12.4 SE 24 32 13 17 1017.8 1017.8 0.0
23/09:30am 28.7 23.7 7.9 27 11.3 SE 24 32 13 17 1018.2 1018.2 0.0
23/09:00am 27.0 22.0 8.0 30 10.2 SE 24 30 13 16 1018.6 1018.6 0.0
23/08:30am 25.4 19.7 8.4 34 9.1 SE 28 35 15 19 1018.6 1018.6 0.0
23/08:00am 24.1 18.5 8.9 38 8.2 SE 28 37 15 20 1018.6 1018.6 0.0
23/07:30am 22.3 17.0 9.8 45 6.8 SE 28 43 15 23 1018.2 1018.2 0.0
23/07:00am 20.0 15.0 11.0 56 4.9 SE 28 37 15 20 1018.1 1018.1 0.0
23/06:30am 18.8 14.3 11.4 62 4.0 SSE 26 33 14 18 1018.0 1018.0 0.0
23/06:00am 18.0 14.0 11.8 67 3.4 SSE 24 30 13 16 1017.8 1017.8 0.0
23/05:30am 18.2 14.6 12.0 67 3.4 SSE 22 32 12 17 1017.7 1017.7 0.0
23/05:00am 18.3 14.8 12.1 67 3.4 SSE 22 28 12 15 1017.5 1017.5 0.0
23/04:30am 18.7 14.8 12.2 66 3.6 SSE 24 32 13 17 1017.4 1017.4 0.0
23/04:00am 19.2 15.5 12.7 66 3.6 SSE 24 35 13 19 1017.3 1017.3 0.0
23/03:30am 19.4 15.8 13.1 67 3.6 SSE 24 32 13 17 1017.2 1017.2 0.0
23/03:00am 19.8 16.5 14.0 69 3.3 SSE 24 32 13 17 1017.2 1017.2 0.0
23/02:30am 19.7 17.7 15.6 77 2.4 SSE 20 28 11 15 1017.2 1017.2 0.0
23/02:00am 19.8 17.7 16.1 79 2.2 SSE 22 28 12 15 1017.5 1017.5 0.0
23/01:30am 19.9 17.8 16.3 80 2.2 SSE 22 32 12 17 1017.8 1017.8 0.0
23/01:00am 19.9 17.8 16.3 80 2.2 SSE 22 30 12 16 1017.9 1017.9 0.0
23/12:30am 20.1 17.7 16.3 79 2.3 SSE 24 32 13 17 1018.2 1018.2 0.0
23/12:00am 20.1 17.4 16.5 80 2.2 SSE 26 35 14 19 1018.3 1018.3 0.0
 
Date/Time
WST
Temp
°C
App
Temp
°C
Dew
Point
°C
Rel
Hum
%
Delta-T
°C
Wind Press
QNH
hPa
Press
MSL
hPa
Rain since
9am
mm
Dir  Spd
km/h
Gust
km/h
Spd
kts
Gust
kts
22/11:30pm 20.3 17.7 16.9 81 2.1 SSE 26 33 14 18 1018.5 1018.5 0.0
22/11:00pm 20.3 17.2 16.5 79 2.3 S 28 37 15 20 1018.8 1018.8 0.0
22/10:30pm 20.3 17.5 16.3 78 2.4 S 26 35 14 19 1019.0 1019.0 0.0
22/10:00pm 20.5 16.9 16.3 77 2.5 S 30 37 16 20 1018.9 1018.9 0.0
22/09:30pm 20.7 16.4 15.9 74 2.9 S 33 43 18 23 1018.9 1018.9 0.0
22/09:00pm 21.0 16.5 16.4 75 2.8 S 35 46 19 25 1018.9 1018.9 0.0
22/08:30pm 21.4 16.6 16.6 74 2.9 S 37 46 20 25 1018.7 1018.7 0.0
22/08:14pm 21.7 16.7 16.0 70 3.4 S 37 56 20 30 1018.3 1018.3 0.0
22/08:00pm 21.9 17.5 16.6 72 3.2 S 35 44 19 24 1018.1 1018.1 0.0
22/07:30pm 22.1 18.7 17.7 76 2.7 SSW 32 43 17 23 1017.7 1017.7 0.0
22/07:00pm 22.2 20.0 18.6 80 2.3 SSW 28 35 15 19 1017.3 1017.3 0.0
22/06:30pm 22.3 19.8 18.1 77 2.6 SSW 28 35 15 19 1017.0 1017.0 0.0
22/06:00pm 22.8 19.5 17.9 74 3.0 SSW 32 39 17 21 1016.8 1016.8 0.0
22/05:30pm 24.6 20.2 15.2 55 5.6 S 32 39 17 21 1016.5 1016.5 0.0
22/05:00pm 25.2 20.4 14.6 51 6.3 SSW 33 44 18 24 1016.3 1016.3 0.0
22/04:30pm 24.9 19.4 14.7 53 6.1 SSW 37 48 20 26 1016.3 1016.3 0.0
22/04:00pm 25.0 19.5 14.8 53 6.1 S 37 48 20 26 1016.3 1016.3 0.0
22/03:30pm 24.4 18.5 14.8 55 5.7 SSW 39 48 21 26 1016.5 1016.5 0.0
22/03:00pm 24.2 18.5 15.1 56 5.4 SSW 39 48 21 26 1016.7 1016.7 0.0
22/02:30pm 24.7 18.6 15.3 56 5.7 SSW 41 50 22 27 1016.9 1016.9 0.0
22/02:00pm 23.5 17.7 15.0 59 5.1 SSW 39 50 21 27 1017.5 1017.5 0.0
22/01:30pm 23.6 17.7 14.6 57 5.3 SSW 39 48 21 26 1017.9 1017.9 0.0
22/01:00pm 23.0 17.3 15.1 61 4.7 SSW 39 50 21 27 1018.4 1018.4 0.0
22/12:30pm 23.6 18.0 15.6 61 4.8 SSW 39 46 21 25 1018.7 1018.7 0.0
22/12:00pm 22.7 16.7 14.5 60 4.8 SSW 39 46 21 25 1019.1 1019.1 0.0
22/11:30am 22.9 17.7 14.5 59 5.0 SSW 35 46 19 25 1019.5 1019.5 0.0
22/11:00am 24.4 19.6 13.9 52 6.2 S 32 41 17 22 1019.9 1019.9 0.0
22/10:30am 23.6 19.3 13.2 52 6.0 S 28 37 15 20 1020.4 1020.4 0.0
22/10:00am 23.5 18.3 11.5 47 6.7 SSE 30 41 16 22 1020.4 1020.4 0.0
22/09:30am 21.9 16.3 12.2 54 5.5 SSE 33 44 18 24 1020.6 1020.6 0.0
22/09:00am 21.1 15.5 12.0 56 5.1 SSE 33 43 18 23 1020.6 1020.6 0.0
22/08:30am 20.8 14.6 11.4 55 5.2 SE 35 46 19 25 1020.9 1020.9 0.0
22/08:00am 20.1 14.0 11.6 58 4.7 SSE 35 48 19 26 1020.7 1020.7 0.0
22/07:30am 18.9 12.0 11.7 63 4.0 SSE 39 54 21 29 1020.9 1020.9 0.0
22/07:00am 18.4 11.5 11.7 65 3.7 SSE 39 52 21 28 1020.7 1020.7 0.0
22/06:30am 17.4 11.3 11.9 70 3.0 SSE 35 52 19 28 1020.4 1020.4 0.0
22/06:00am 17.0 12.0 12.1 73 2.7 SSE 30 39 16 21 1020.1 1020.1 0.0
22/05:30am 16.9 12.0 12.6 76 2.4 SSE 30 41 16 22 1019.8 1019.8 0.0
22/05:00am 17.2 12.9 13.1 77 2.3 SSE 28 43 15 23 1019.4 1019.4 0.0
22/04:30am 17.3 13.1 13.4 78 2.2 SSE 28 39 15 21 1019.2 1019.2 0.0
22/04:00am 17.6 13.9 13.9 79 2.1 SSE 26 35 14 19 1018.9 1018.9 0.0
22/03:30am 17.8 14.2 14.1 79 2.1 SSE 26 35 14 19 1018.6 1018.6 0.0
22/03:00am 18.2 15.0 14.3 78 2.2 SSE 24 35 13 19 1018.4 1018.4 0.0
22/02:30am 18.5 14.3 14.6 78 2.3 SSE 30 37 16 20 1018.4 1018.4 0.0
22/02:00am 18.5 13.8 14.4 77 2.4 SSE 32 41 17 22 1018.5 1018.5 0.0
22/01:30am 18.7 14.0 14.2 75 2.6 SSE 32 46 17 25 1018.7 1018.7 0.0
22/01:00am 19.0 14.2 14.1 73 2.8 SSE 32 44 17 24 1018.8 1018.8 0.0
22/12:30am 19.1 14.3 14.6 75 2.6 SSE 33 44 18 24 1018.9 1018.9 0.0
22/12:00am 19.0 14.2 14.7 76 2.5 S 33 43 18 23 1019.1 1019.1 0.0
 
Date/Time
WST
Temp
°C
App
Temp
°C
Dew
Point
°C
Rel
Hum
%
Delta-T
°C
Wind Press
QNH
hPa
Press
MSL
hPa
Rain since
9am
mm
Dir  Spd
km/h
Gust
km/h
Spd
kts
Gust
kts
21/11:30pm 19.1 14.4 14.4 74 2.7 S 32 43 17 23 1019.2 1019.2 0.0
21/11:00pm 19.3 14.5 14.6 74 2.7 S 33 46 18 25 1019.5 1019.5 0.0
21/10:30pm 19.5 14.7 14.5 73 2.9 S 33 46 18 25 1019.5 1019.5 0.0
21/10:00pm 19.9 14.5 15.1 74 2.8 S 37 48 20 26 1019.7 1019.7 0.0
21/09:30pm 20.1 15.0 14.9 72 3.0 S 35 50 19 27 1019.4 1019.4 0.0

Other formats

Comma delimited format used in spreadsheet applications
http://www.bom.gov.au/fwo/IDW60801/IDW60801.94300.axf

JavaScript Object Notation format (JSON) in row-major order
http://www.bom.gov.au/fwo/IDW60801/IDW60801.94300.json

Data quality

Most of these data are generated automatically and are frequently updated. Quality checks on data are not normally performed. It is possible for incorrect values to appear. Refer to information at About Latest Weather Observations and please check the disclaimer before using these data.